createdAt,value
2023-05-03T00:01:01.440Z,55.10
2023-05-03T00:03:04.875Z,55.10
2023-05-03T00:05:09.738Z,55.10
2023-05-03T00:07:11.488Z,55.20
2023-05-03T00:09:14.165Z,55.20
2023-05-03T00:11:16.026Z,55.30
2023-05-03T00:13:17.726Z,55.20
2023-05-03T00:15:19.363Z,55.30
2023-05-03T00:17:21.745Z,55.30
2023-05-03T00:19:31.390Z,55.60
2023-05-03T00:21:33.592Z,55.60
2023-05-03T00:23:35.263Z,55.60
2023-05-03T00:25:36.914Z,55.70
2023-05-03T00:27:38.661Z,55.70
2023-05-03T00:29:40.365Z,55.60
2023-05-03T00:31:43.809Z,55.70
2023-05-03T00:33:45.529Z,55.80
2023-05-03T00:35:47.266Z,55.80
2023-05-03T00:37:49.381Z,55.80
2023-05-03T00:39:51.035Z,55.80
2023-05-03T00:41:56.344Z,55.80
2023-05-03T00:43:58.025Z,55.90
2023-05-03T00:46:12.392Z,55.80
2023-05-03T00:48:18.912Z,55.80
2023-05-03T00:50:20.884Z,55.80
2023-05-03T00:52:22.726Z,55.90
2023-05-03T00:54:24.708Z,55.80
2023-05-03T00:56:27.570Z,55.80
2023-05-03T00:58:30.832Z,55.80
2023-05-03T01:00:32.794Z,55.70
2023-05-03T01:02:34.647Z,55.90
2023-05-03T01:04:37.247Z,55.90
2023-05-03T01:06:39.115Z,55.80
2023-05-03T01:08:44.156Z,55.90
2023-05-03T01:10:51.897Z,56.00
2023-05-03T01:12:56.522Z,55.90
2023-05-03T01:14:58.185Z,56.10
2023-05-03T01:17:07.115Z,56.10
2023-05-03T01:19:15.638Z,56.10
2023-05-03T01:21:18.604Z,56.00
2023-05-03T01:23:39.360Z,56.10
2023-05-03T01:25:41.700Z,56.00
2023-05-03T01:27:43.423Z,56.10
2023-05-03T01:29:45.640Z,56.20
2023-05-03T01:31:53.426Z,56.40
2023-05-03T01:33:57.706Z,56.10
2023-05-03T01:36:09.631Z,56.20
2023-05-03T01:38:12.205Z,56.20
2023-05-03T01:40:16.836Z,56.30
2023-05-03T01:42:18.915Z,56.10
2023-05-03T01:44:22.943Z,56.30
2023-05-03T01:46:24.780Z,56.30
2023-05-03T01:48:26.463Z,56.30
2023-05-03T01:50:28.129Z,56.50
2023-05-03T01:52:31.309Z,56.30
2023-05-03T01:54:33.035Z,56.40
2023-05-03T01:56:36.306Z,56.40
2023-05-03T01:58:37.967Z,56.50
2023-05-03T02:00:39.654Z,56.60
2023-05-03T02:02:41.336Z,56.30
2023-05-03T02:04:43.470Z,56.40
2023-05-03T02:06:45.177Z,56.50
2023-05-03T02:08:47.087Z,56.40
2023-05-03T02:10:48.714Z,56.40
2023-05-03T02:12:51.292Z,56.30
2023-05-03T02:14:52.941Z,56.40
2023-05-03T02:16:57.403Z,56.30
2023-05-03T02:18:59.454Z,56.50
2023-05-03T02:21:01.283Z,56.60
2023-05-03T02:23:03.274Z,56.50
2023-05-03T02:25:05.277Z,56.40
2023-05-03T02:27:07.232Z,56.60
2023-05-03T02:29:09.912Z,56.60
2023-05-03T02:31:13.429Z,56.60
2023-05-03T02:33:17.197Z,56.70
2023-05-03T02:35:18.899Z,56.60
2023-05-03T02:37:21.102Z,56.50
2023-05-03T02:39:23.476Z,56.60
2023-05-03T02:41:27.838Z,56.90
2023-05-03T02:43:29.913Z,56.60
2023-05-03T02:45:32.767Z,56.80
2023-05-03T02:47:34.412Z,56.60
2023-05-03T02:49:36.227Z,56.70
2023-05-03T02:51:37.908Z,56.50
2023-05-03T02:53:39.555Z,56.70
2023-05-03T02:55:41.335Z,56.90
2023-05-03T02:57:43.062Z,56.80
2023-05-03T02:59:46.697Z,56.80
2023-05-03T03:01:49.211Z,56.90
2023-05-03T03:03:52.591Z,56.70
2023-05-03T03:05:54.955Z,56.70
2023-05-03T03:07:57.877Z,56.90
2023-05-03T03:09:59.807Z,56.90
2023-05-03T03:12:03.519Z,56.90
2023-05-03T03:14:07.210Z,56.90
2023-05-03T03:16:09.851Z,56.90
2023-05-03T03:18:12.053Z,56.70
2023-05-03T03:20:14.062Z,57.10
2023-05-03T03:22:19.671Z,57.00
2023-05-03T03:24:22.187Z,56.80
2023-05-03T03:26:25.128Z,56.90
2023-05-03T03:28:27.101Z,56.90
2023-05-03T03:30:30.798Z,56.90
2023-05-03T03:32:42.455Z,56.90
2023-05-03T03:34:49.022Z,56.90
2023-05-03T03:36:50.744Z,57.00
2023-05-03T03:38:53.038Z,56.80
2023-05-03T03:40:54.768Z,56.90
2023-05-03T03:42:56.417Z,56.90
2023-05-03T03:44:58.158Z,57.00
2023-05-03T03:46:59.940Z,56.90
2023-05-03T03:49:01.614Z,56.90
2023-05-03T03:51:05.134Z,57.00
2023-05-03T03:53:13.189Z,57.10
2023-05-03T03:55:15.746Z,57.00
2023-05-03T03:57:18.030Z,57.20
2023-05-03T03:59:20.007Z,57.20
2023-05-03T04:01:22.094Z,57.10
2023-05-03T04:03:24.262Z,57.10
2023-05-03T04:05:26.296Z,57.00
2023-05-03T04:07:29.303Z,56.90
2023-05-03T04:09:30.966Z,56.90
2023-05-03T04:11:32.703Z,56.70
2023-05-03T04:13:35.592Z,56.80
2023-05-03T04:15:37.267Z,56.90
2023-05-03T04:17:40.111Z,57.10
2023-05-03T04:19:44.684Z,56.90
2023-05-03T04:21:47.703Z,57.10
2023-05-03T04:23:50.067Z,57.10
2023-05-03T04:25:54.910Z,57.00
2023-05-03T04:27:58.892Z,57.10
2023-05-03T04:30:02.790Z,57.00
2023-05-03T04:32:04.907Z,57.00
2023-05-03T04:34:07.638Z,57.10
2023-05-03T04:36:09.571Z,57.20
2023-05-03T04:38:12.490Z,57.10
2023-05-03T04:40:16.318Z,57.10
2023-05-03T04:42:22.913Z,57.30
2023-05-03T04:44:26.239Z,57.10
2023-05-03T04:46:28.700Z,57.10
2023-05-03T04:48:30.447Z,57.10
2023-05-03T04:50:32.847Z,57.20
2023-05-03T04:52:35.248Z,57.20
2023-05-03T04:54:36.949Z,57.10
2023-05-03T04:56:38.687Z,57.10
2023-05-03T04:58:49.189Z,57.10
2023-05-03T05:00:52.031Z,57.10
2023-05-03T05:03:01.215Z,57.00
2023-05-03T05:05:05.665Z,57.10
2023-05-03T05:07:08.525Z,57.20
2023-05-03T05:09:24.766Z,57.20
2023-05-03T05:11:28.769Z,57.10
2023-05-03T05:13:30.904Z,57.10
2023-05-03T05:15:32.607Z,57.00
2023-05-03T05:17:35.006Z,57.10
2023-05-03T05:19:38.071Z,57.00
2023-05-03T05:21:40.087Z,57.00
2023-05-03T05:23:41.792Z,57.70
2023-05-03T05:25:43.787Z,57.10
2023-05-03T05:27:45.528Z,57.10
2023-05-03T05:29:47.901Z,56.90
2023-05-03T05:31:49.678Z,57.10
2023-05-03T05:33:52.002Z,57.10
2023-05-03T05:35:53.865Z,57.10
2023-05-03T05:37:56.860Z,57.10
2023-05-03T05:39:59.249Z,57.80
2023-05-03T05:42:04.956Z,57.00
2023-05-03T05:44:07.980Z,57.10
2023-05-03T05:46:09.693Z,57.10
2023-05-03T05:48:11.463Z,57.00
2023-05-03T05:50:18.382Z,57.10
2023-05-03T05:52:25.910Z,57.20
2023-05-03T05:54:28.721Z,57.20
2023-05-03T05:56:32.845Z,57.20
2023-05-03T05:58:34.999Z,57.10
2023-05-03T06:00:37.349Z,57.20
2023-05-03T06:02:39.103Z,57.10
2023-05-03T06:04:41.041Z,57.10
2023-05-03T06:06:42.806Z,57.70
2023-05-03T06:08:44.490Z,57.10
2023-05-03T06:10:46.390Z,56.90
2023-05-03T06:12:48.642Z,56.90
2023-05-03T06:15:02.465Z,57.20
2023-05-03T06:17:09.838Z,57.20
2023-05-03T06:19:11.745Z,57.30
2023-05-03T06:21:13.565Z,57.10
2023-05-03T06:23:16.089Z,57.10
2023-05-03T06:25:18.470Z,57.10
2023-05-03T06:27:24.864Z,57.10
2023-05-03T06:29:28.321Z,57.10
2023-05-03T06:31:31.037Z,57.20
2023-05-03T06:33:35.452Z,57.10
2023-05-03T06:35:37.434Z,57.20
2023-05-03T06:37:39.204Z,57.10
2023-05-03T06:39:41.601Z,57.10
2023-05-03T06:41:43.519Z,57.20
2023-05-03T06:43:45.543Z,57.20
2023-05-03T06:45:48.048Z,57.80
2023-05-03T06:47:50.185Z,57.20
2023-05-03T06:49:51.962Z,57.30
2023-05-03T06:51:53.817Z,57.10
2023-05-03T06:54:00.465Z,57.10
2023-05-03T06:56:03.594Z,57.10
2023-05-03T06:58:09.941Z,56.90
2023-05-03T07:00:12.018Z,57.00
2023-05-03T07:02:13.777Z,56.90
2023-05-03T07:04:15.674Z,56.90
2023-05-03T07:06:18.401Z,56.90
2023-05-03T07:08:20.214Z,56.80
2023-05-03T07:10:21.917Z,56.80
2023-05-03T07:12:27.574Z,56.90
2023-05-03T07:14:29.387Z,56.90
2023-05-03T07:16:31.105Z,56.80
2023-05-03T07:18:32.891Z,56.80
2023-05-03T07:20:34.589Z,56.70
2023-05-03T07:22:36.214Z,56.70
2023-05-03T07:24:38.034Z,56.70
2023-05-03T07:26:39.713Z,56.70
2023-05-03T07:28:41.379Z,56.90
2023-05-03T07:30:43.165Z,56.80
2023-05-03T07:32:45.082Z,56.90
2023-05-03T07:34:46.917Z,56.90
2023-05-03T07:36:48.686Z,56.80
2023-05-03T07:38:50.859Z,56.70
2023-05-03T07:40:52.516Z,56.70
2023-05-03T07:42:55.017Z,56.70
2023-05-03T07:44:56.717Z,56.70
2023-05-03T07:46:58.454Z,56.70
2023-05-03T07:49:00.317Z,56.70
2023-05-03T07:51:04.494Z,56.80
2023-05-03T07:53:06.202Z,56.70
2023-05-03T07:55:08.334Z,56.70
2023-05-03T07:57:10.024Z,56.70
2023-05-03T07:59:11.718Z,56.70
2023-05-03T08:01:13.415Z,56.70
2023-05-03T08:03:15.448Z,56.70
2023-05-03T08:05:17.834Z,56.60
2023-05-03T08:07:20.017Z,56.60
2023-05-03T08:09:21.746Z,56.70
2023-05-03T08:11:26.006Z,56.60
2023-05-03T08:13:27.801Z,56.50
2023-05-03T08:15:29.770Z,56.50
2023-05-03T08:17:31.593Z,56.50
2023-05-03T08:19:33.378Z,56.50
2023-05-03T08:21:35.605Z,56.50
2023-05-03T08:23:37.862Z,56.50
2023-05-03T08:25:39.562Z,56.40
2023-05-03T08:27:41.356Z,56.40
2023-05-03T08:29:43.195Z,56.30
2023-05-03T08:31:45.094Z,56.30
2023-05-03T08:33:46.916Z,56.30
2023-05-03T08:35:49.434Z,56.30
2023-05-03T08:37:51.223Z,56.20
2023-05-03T08:39:55.612Z,56.20
2023-05-03T08:41:58.539Z,56.30
2023-05-03T08:44:00.966Z,56.20
2023-05-03T08:46:03.204Z,56.30
2023-05-03T08:48:06.768Z,56.20
2023-05-03T08:50:09.994Z,56.20
2023-05-03T08:52:14.164Z,56.20
2023-05-03T08:54:17.712Z,56.20
2023-05-03T08:56:39.701Z,56.10
2023-05-03T08:58:41.439Z,56.10
2023-05-03T09:00:45.202Z,56.00
2023-05-03T09:02:47.481Z,56.10
2023-05-03T09:04:49.321Z,56.00
2023-05-03T09:06:51.175Z,56.00
2023-05-03T09:08:53.339Z,55.90
2023-05-03T09:10:55.294Z,55.80
2023-05-03T09:13:03.333Z,55.90
2023-05-03T09:15:06.501Z,55.90
2023-05-03T09:17:16.200Z,55.80
2023-05-03T09:19:18.050Z,55.90
2023-05-03T09:21:20.700Z,55.80
2023-05-03T09:23:31.718Z,55.70
2023-05-03T09:25:46.922Z,55.80
2023-05-03T09:27:59.947Z,55.70
2023-05-03T09:30:16.918Z,55.80
2023-05-03T09:32:18.955Z,55.80
2023-05-03T09:34:21.742Z,55.70
2023-05-03T09:36:23.762Z,55.70
2023-05-03T09:38:26.831Z,55.50
2023-05-03T09:40:29.367Z,55.70
2023-05-03T09:42:31.147Z,55.60
2023-05-03T09:44:42.699Z,55.60
2023-05-03T09:47:03.623Z,55.60
2023-05-03T09:49:05.378Z,55.60
2023-05-03T09:51:07.583Z,55.50
2023-05-03T09:53:09.628Z,55.30
2023-05-03T09:55:11.606Z,55.30
2023-05-03T09:57:14.682Z,55.30
2023-05-03T09:59:17.010Z,55.20
2023-05-03T10:01:19.085Z,55.20
2023-05-03T10:03:35.132Z,55.20
2023-05-03T10:05:40.608Z,55.00
2023-05-03T10:07:43.163Z,55.10
2023-05-03T10:09:48.519Z,54.90
2023-05-03T10:11:54.046Z,55.00
2023-05-03T10:13:56.020Z,54.90
2023-05-03T10:16:09.373Z,54.90
2023-05-03T10:18:12.671Z,54.80
2023-05-03T10:20:33.066Z,54.90
2023-05-03T10:22:54.661Z,54.90
2023-05-03T10:25:02.386Z,54.90
2023-05-03T10:27:07.768Z,54.80
2023-05-03T10:29:27.792Z,54.60
2023-05-03T10:31:45.581Z,54.70
2023-05-03T10:33:47.363Z,54.70
2023-05-03T10:35:52.293Z,54.60
2023-05-03T10:37:56.642Z,54.70
2023-05-03T10:40:05.729Z,54.80
2023-05-03T10:42:08.665Z,54.40
2023-05-03T10:44:34.504Z,54.80
2023-05-03T10:46:36.692Z,54.20
2023-05-03T10:48:38.378Z,54.30
2023-05-03T10:50:40.048Z,54.20
2023-05-03T10:52:41.683Z,54.30
2023-05-03T10:54:43.321Z,54.50
2023-05-03T10:56:48.508Z,54.60
2023-05-03T10:58:56.925Z,54.30
2023-05-03T11:00:59.058Z,54.30
2023-05-03T11:03:18.837Z,54.20
2023-05-03T11:05:21.521Z,54.10
2023-05-03T11:07:23.417Z,53.90
2023-05-03T11:09:32.129Z,53.80
2023-05-03T11:11:35.314Z,53.90
2023-05-03T11:13:37.335Z,53.60
2023-05-03T11:15:39.393Z,53.50
2023-05-03T11:17:41.245Z,53.80
2023-05-03T11:19:46.393Z,54.00
2023-05-03T11:21:48.608Z,53.80
2023-05-03T11:23:50.470Z,53.60
2023-05-03T11:25:52.517Z,53.60
2023-05-03T11:27:54.155Z,53.50
2023-05-03T11:29:58.446Z,53.70
2023-05-03T11:32:00.466Z,53.80
2023-05-03T11:34:02.402Z,53.40
2023-05-03T11:36:04.597Z,53.20
2023-05-03T11:38:07.041Z,53.20
2023-05-03T11:40:16.599Z,52.90
2023-05-03T11:42:18.859Z,52.80
2023-05-03T11:44:20.814Z,52.50
2023-05-03T11:46:24.656Z,52.30
2023-05-03T11:48:27.822Z,52.20
2023-05-03T11:50:50.762Z,52.40
2023-05-03T11:52:52.947Z,52.30
2023-05-03T11:54:54.688Z,52.00
2023-05-03T11:56:57.890Z,52.00
2023-05-03T11:59:00.737Z,52.00
2023-05-03T12:01:03.591Z,52.50
2023-05-03T12:03:05.518Z,52.00
2023-05-03T12:05:08.927Z,51.70
2023-05-03T12:07:13.159Z,51.70
2023-05-03T12:09:17.816Z,51.60
2023-05-03T12:11:22.776Z,51.50
2023-05-03T12:13:30.056Z,51.30
2023-05-03T12:15:33.766Z,51.20
2023-05-03T12:17:38.458Z,51.50
2023-05-03T12:19:43.526Z,51.60
2023-05-03T12:23:56.022Z,51.80
2023-05-03T12:26:00.987Z,51.60
2023-05-03T12:30:12.888Z,51.50
2023-05-03T12:32:15.287Z,51.30
2023-05-03T12:36:24.701Z,50.60
2023-05-03T12:38:30.608Z,50.90
2023-05-03T12:40:34.565Z,51.60
2023-05-03T12:42:37.102Z,51.90
2023-05-03T12:44:42.430Z,51.80
2023-05-03T12:46:45.739Z,52.20
2023-05-03T12:48:47.823Z,52.10
2023-05-03T12:50:51.869Z,52.00
2023-05-03T12:52:54.030Z,51.90
2023-05-03T12:54:56.266Z,51.50
2023-05-03T12:57:01.486Z,51.30
2023-05-03T12:59:34.764Z,51.20
2023-05-03T13:03:33.701Z,50.50
2023-05-03T13:05:36.985Z,49.80
2023-05-03T13:07:43.076Z,50.40
2023-05-03T13:11:53.278Z,50.80
2023-05-03T13:13:55.111Z,50.50
2023-05-03T13:15:56.866Z,50.20
2023-05-03T13:18:01.694Z,50.50
2023-05-03T13:20:07.212Z,50.50
2023-05-03T13:22:09.667Z,50.50
2023-05-03T13:24:11.399Z,51.10
2023-05-03T13:26:13.233Z,50.70
2023-05-03T13:28:19.901Z,50.70
2023-05-03T13:30:23.056Z,51.00
2023-05-03T13:32:25.799Z,50.70
2023-05-03T13:34:29.428Z,50.40
2023-05-03T13:36:33.270Z,50.60
2023-05-03T13:38:35.548Z,50.90
2023-05-03T13:40:37.411Z,50.40
2023-05-03T13:42:39.073Z,50.00
2023-05-03T13:44:40.909Z,49.70
2023-05-03T13:46:43.518Z,50.00
2023-05-03T13:48:45.222Z,50.30
2023-05-03T13:50:46.939Z,50.10
2023-05-03T13:52:48.612Z,49.90
2023-05-03T13:54:50.547Z,49.80
2023-05-03T13:56:52.298Z,49.40
2023-05-03T13:58:55.607Z,49.40
2023-05-03T14:00:57.794Z,49.50
2023-05-03T14:02:59.618Z,48.80
2023-05-03T14:05:01.729Z,48.60
2023-05-03T14:07:16.743Z,48.90
2023-05-03T14:09:19.262Z,48.60
2023-05-03T14:11:27.344Z,48.30
2023-05-03T14:13:43.629Z,47.80
2023-05-03T14:18:41.997Z,48.10
2023-05-03T14:20:44.480Z,47.30
2023-05-03T14:22:46.426Z,47.20
2023-05-03T14:25:32.036Z,47.10
2023-05-03T14:28:14.745Z,47.50
2023-05-03T14:30:21.450Z,46.90
2023-05-03T14:32:47.381Z,47.10
2023-05-03T14:38:56.514Z,46.00
2023-05-03T14:41:10.718Z,47.30
2023-05-03T14:46:47.280Z,46.70
2023-05-03T14:49:55.335Z,46.50
2023-05-03T14:52:03.127Z,47.00
2023-05-03T14:54:59.705Z,46.70
2023-05-03T14:58:01.398Z,47.20
2023-05-03T15:00:03.655Z,46.30
2023-05-03T15:02:20.555Z,45.90
2023-05-03T15:04:29.860Z,45.30
2023-05-03T15:10:15.940Z,45.10
2023-05-03T15:13:33.476Z,45.00
2023-05-03T15:15:51.989Z,45.00
2023-05-03T15:18:19.183Z,45.10
2023-05-03T15:20:30.137Z,45.20
2023-05-03T15:22:48.749Z,45.00
2023-05-03T15:24:54.681Z,44.70
2023-05-03T15:27:02.685Z,44.50
2023-05-03T15:29:05.268Z,45.10
2023-05-03T15:31:10.868Z,43.90
2023-05-03T15:33:14.445Z,44.50
2023-05-03T15:35:21.318Z,43.90
2023-05-03T15:37:23.789Z,44.20
2023-05-03T15:39:26.374Z,44.10
2023-05-03T15:41:28.544Z,43.40
2023-05-03T15:43:30.543Z,43.80
2023-05-03T15:45:32.881Z,44.10
2023-05-03T15:47:34.754Z,43.90
2023-05-03T15:49:36.511Z,44.00
2023-05-03T15:51:39.221Z,44.10
2023-05-03T15:53:41.130Z,43.20
2023-05-03T15:55:47.567Z,42.70
2023-05-03T15:57:49.494Z,43.50
2023-05-03T15:59:54.211Z,44.30
2023-05-03T16:01:58.500Z,42.40
2023-05-03T16:04:00.682Z,43.30
2023-05-03T16:06:03.060Z,42.80
2023-05-03T16:08:06.653Z,42.60
2023-05-03T16:10:09.479Z,42.80
2023-05-03T16:12:11.677Z,42.30
2023-05-03T16:14:16.692Z,42.00
2023-05-03T16:22:20.827Z,41.00
2023-05-03T16:47:41.729Z,40.40
2023-05-03T16:49:43.668Z,41.20
2023-05-03T16:51:45.586Z,40.80
2023-05-03T16:53:47.370Z,40.30
2023-05-03T16:55:49.337Z,40.70
2023-05-03T16:57:51.059Z,41.00
2023-05-03T16:59:54.786Z,40.80
2023-05-03T17:01:56.801Z,40.40
2023-05-03T17:03:58.617Z,40.60
2023-05-03T17:06:06.282Z,40.90
2023-05-03T17:08:12.634Z,40.10
2023-05-03T17:10:16.391Z,38.80
2023-05-03T17:12:18.284Z,40.20
2023-05-03T17:14:20.785Z,40.30
2023-05-03T17:16:23.001Z,40.00
2023-05-03T17:18:24.820Z,40.20
2023-05-03T17:20:26.564Z,40.60
2023-05-03T17:22:28.335Z,40.70
2023-05-03T17:24:30.161Z,40.60
2023-05-03T17:26:31.928Z,41.00
2023-05-03T17:28:33.672Z,40.90
2023-05-03T17:30:35.430Z,40.60
2023-05-03T17:32:38.022Z,40.90
2023-05-03T17:34:40.079Z,40.90
2023-05-03T17:36:42.169Z,41.20
2023-05-03T17:38:44.601Z,41.50
2023-05-03T17:40:46.625Z,41.60
2023-05-03T17:42:49.351Z,41.70
2023-05-03T17:44:51.997Z,41.00
2023-05-03T17:46:59.982Z,41.30
2023-05-03T17:49:19.858Z,41.50
2023-05-03T17:51:24.986Z,41.30
2023-05-03T17:53:27.871Z,41.60
2023-05-03T17:55:29.811Z,41.70
2023-05-03T17:57:31.896Z,42.00
2023-05-03T17:59:34.464Z,41.70
2023-05-03T18:01:37.525Z,41.70
2023-05-03T18:06:50.073Z,41.90
2023-05-03T18:08:57.221Z,43.00
2023-05-03T18:11:02.133Z,42.40
2023-05-03T18:13:06.165Z,42.60
2023-05-03T18:15:08.312Z,42.90
2023-05-03T18:17:10.465Z,43.00
2023-05-03T18:22:06.933Z,43.20
2023-05-03T18:24:10.551Z,43.50
2023-05-03T18:26:49.978Z,43.70
2023-05-03T18:29:02.348Z,43.60
2023-05-03T18:36:19.983Z,43.80
2023-05-03T18:38:26.066Z,44.10
2023-05-03T18:40:38.745Z,44.20
2023-05-03T18:42:49.037Z,44.40
2023-05-03T18:45:17.360Z,44.50
2023-05-03T18:47:22.148Z,44.50
2023-05-03T18:49:24.367Z,44.80
2023-05-03T18:51:46.068Z,44.90
2023-05-03T18:54:33.656Z,44.80
2023-05-03T18:56:52.431Z,44.90
2023-05-03T18:59:06.055Z,45.00
2023-05-03T19:01:09.081Z,45.00
2023-05-03T19:03:41.428Z,45.00
2023-05-03T19:05:46.298Z,45.00
2023-05-03T19:10:10.492Z,45.50
2023-05-03T19:12:26.887Z,45.40
2023-05-03T19:15:15.202Z,45.60
2023-05-03T19:17:25.558Z,45.50
2023-05-03T19:19:41.349Z,45.60
2023-05-03T19:21:59.723Z,45.80
2023-05-03T19:24:28.420Z,45.70
2023-05-03T19:29:31.006Z,45.80
2023-05-03T19:31:39.012Z,45.90
2023-05-03T19:33:50.798Z,45.90
2023-05-03T19:35:57.917Z,46.00
2023-05-03T19:38:03.341Z,46.10
2023-05-03T19:40:16.171Z,46.10
2023-05-03T19:42:19.659Z,46.10
2023-05-03T19:44:23.362Z,46.80
2023-05-03T19:46:29.229Z,46.10
2023-05-03T19:48:32.559Z,46.10
2023-05-03T19:50:35.504Z,46.20
2023-05-03T19:52:40.898Z,46.10
2023-05-03T19:54:45.153Z,46.20
2023-05-03T19:56:49.960Z,46.30
2023-05-03T19:58:52.248Z,46.30
2023-05-03T20:01:01.611Z,46.40
2023-05-03T20:03:04.575Z,46.40
2023-05-03T20:05:08.323Z,46.50
2023-05-03T20:07:12.511Z,46.50
2023-05-03T20:09:28.915Z,46.50
2023-05-03T20:12:08.809Z,46.50
2023-05-03T20:23:24.411Z,46.70
2023-05-03T20:25:27.499Z,46.80
2023-05-03T20:27:31.594Z,46.80
2023-05-03T20:29:34.305Z,46.80
2023-05-03T20:31:36.202Z,46.70
2023-05-03T20:33:39.022Z,46.70
2023-05-03T20:35:40.974Z,46.80
2023-05-03T20:37:42.853Z,46.90
2023-05-03T20:39:44.788Z,47.00
2023-05-03T20:41:46.582Z,47.10
2023-05-03T20:43:49.775Z,47.10
2023-05-03T20:45:53.502Z,47.20
2023-05-03T20:47:55.880Z,47.30
2023-05-03T20:50:00.045Z,47.30
2023-05-03T20:52:06.261Z,47.40
2023-05-03T20:54:11.719Z,47.60
2023-05-03T20:56:13.548Z,47.60
2023-05-03T20:58:16.107Z,47.60
2023-05-03T21:00:18.040Z,47.60
2023-05-03T21:02:19.889Z,47.80
2023-05-03T21:04:22.995Z,47.90
2023-05-03T21:06:36.660Z,48.00
2023-05-03T21:08:39.291Z,47.90
2023-05-03T21:10:45.320Z,47.90
2023-05-03T21:12:50.148Z,48.00
2023-05-03T21:14:52.031Z,48.00
2023-05-03T21:16:53.813Z,48.10
2023-05-03T21:18:55.779Z,48.00
2023-05-03T21:21:00.691Z,48.10
2023-05-03T21:23:05.795Z,48.10
2023-05-03T21:25:07.865Z,48.20
2023-05-03T21:27:09.865Z,48.20
2023-05-03T21:29:12.178Z,48.20
2023-05-03T21:31:13.980Z,48.30
2023-05-03T21:33:15.968Z,48.30
2023-05-03T21:35:18.341Z,48.30
2023-05-03T21:37:20.265Z,48.40
2023-05-03T21:39:22.376Z,48.40
2023-05-03T21:41:24.357Z,48.40
2023-05-03T21:43:26.127Z,48.40
2023-05-03T21:45:27.877Z,48.40
2023-05-03T21:47:29.689Z,48.40
2023-05-03T21:49:32.095Z,48.40
2023-05-03T21:51:34.538Z,48.50
2023-05-03T21:54:01.204Z,48.50
2023-05-03T21:56:02.933Z,48.50
2023-05-03T21:58:04.821Z,48.40
2023-05-03T22:00:07.304Z,48.50
2023-05-03T22:02:10.212Z,48.60
2023-05-03T22:04:13.620Z,48.60
2023-05-03T22:06:15.672Z,49.50
2023-05-03T22:08:18.581Z,48.70
2023-05-03T22:10:20.654Z,48.90
2023-05-03T22:12:24.607Z,48.80
2023-05-03T22:14:27.427Z,48.80
2023-05-03T22:16:29.248Z,48.80
2023-05-03T22:18:31.237Z,48.90
2023-05-03T22:20:32.917Z,49.00
2023-05-03T22:22:34.617Z,48.90
2023-05-03T22:24:36.330Z,49.00
2023-05-03T22:26:38.073Z,49.00
2023-05-03T22:28:39.822Z,48.90
2023-05-03T22:30:41.682Z,49.00
2023-05-03T22:32:43.517Z,49.00
2023-05-03T22:34:45.216Z,49.10
2023-05-03T22:36:47.060Z,49.00
2023-05-03T22:38:48.732Z,49.20
2023-05-03T22:40:50.386Z,49.10
2023-05-03T22:42:52.114Z,49.90
2023-05-03T22:44:59.777Z,49.20
2023-05-03T22:47:01.556Z,49.30
2023-05-03T22:49:03.939Z,49.30
2023-05-03T22:51:06.153Z,49.30
2023-05-03T22:53:07.926Z,49.20
2023-05-03T22:55:10.107Z,49.30
2023-05-03T22:57:11.771Z,49.30
2023-05-03T22:59:13.427Z,49.30
2023-05-03T23:01:18.595Z,49.50
2023-05-03T23:03:23.417Z,49.40
2023-05-03T23:05:25.754Z,49.50
2023-05-03T23:07:27.473Z,49.50
2023-05-03T23:09:29.237Z,49.40
2023-05-03T23:11:31.125Z,49.40
2023-05-03T23:13:32.900Z,49.40
2023-05-03T23:15:34.924Z,49.50
2023-05-03T23:17:36.587Z,49.60
2023-05-03T23:19:38.661Z,49.70
2023-05-03T23:21:40.378Z,49.50
2023-05-03T23:23:42.124Z,49.80
2023-05-03T23:25:43.815Z,49.70
2023-05-03T23:27:45.653Z,49.90
2023-05-03T23:29:48.227Z,49.90
2023-05-03T23:31:50.391Z,49.90
2023-05-03T23:33:52.592Z,50.10
2023-05-03T23:35:55.555Z,49.90
2023-05-03T23:37:57.756Z,50.00
2023-05-03T23:40:08.075Z,50.20
2023-05-03T23:42:09.851Z,50.20
2023-05-03T23:44:11.499Z,50.20
2023-05-03T23:46:13.216Z,50.10
2023-05-03T23:48:15.029Z,50.30
2023-05-03T23:50:20.112Z,50.10
2023-05-03T23:52:22.066Z,50.10
2023-05-03T23:54:23.893Z,50.10
2023-05-03T23:56:25.558Z,50.20
2023-05-03T23:58:27.198Z,50.30
